Time;durP1;ratioP1;P1;durP2;ratioP2;P2;SDS_P1;SDS_P2;PMS_P1;PMS_P2;Temp;Humidity;BMP_temperature;BMP_pressure;BME280_temperature;BME280_humidity;BME280_pressure;Samples;Min_cycle;Max_cycle;Signal;HPM_P1;HPM_P2
2023/08/26 00:00:00;;;;;;;4.72;4.32;;;24.10;99.90;;;;;;5052660;28;20198;-70
2023/08/26 00:02:26;;;;;;;5.10;4.60;;;24.10;99.90;;;;;;5045560;28;20191;-70
2023/08/26 00:04:52;;;;;;;4.85;4.45;;;24.10;99.90;;;;;;5022550;28;20218;-70
2023/08/26 00:07:17;;;;;;;5.13;4.72;;;24.10;99.90;;;;;;5049185;28;20191;-69
2023/08/26 00:09:43;;;;;;;4.82;4.43;;;24.10;99.90;;;;;;5032055;28;20181;-70
2023/08/26 00:12:09;;;;;;;5.88;5.28;;;24.10;99.90;;;;;;5039582;28;20237;-70
2023/08/26 00:14:35;;;;;;;5.15;4.65;;;24.10;99.90;;;;;;5042712;28;20179;-69
2023/08/26 00:17:00;;;;;;;5.57;4.93;;;24.10;99.90;;;;;;5021891;28;20187;-70
2023/08/26 00:19:26;;;;;;;5.72;5.00;;;24.00;99.90;;;;;;5030866;28;20196;-70
2023/08/26 00:21:52;;;;;;;5.10;4.65;;;24.10;99.90;;;;;;5037211;28;20198;-70
2023/08/26 00:24:19;;;;;;;4.63;4.32;;;24.10;99.90;;;;;;5027630;28;20215;-70
2023/08/26 00:26:45;;;;;;;5.20;4.80;;;24.10;99.90;;;;;;5037258;28;20202;-70
2023/08/26 00:29:11;;;;;;;5.00;4.60;;;24.10;99.90;;;;;;5035866;28;20225;-70
2023/08/26 00:31:37;;;;;;;4.43;4.13;;;24.10;99.90;;;;;;5027016;28;20179;-70
2023/08/26 00:34:03;;;;;;;5.00;4.60;;;24.10;99.90;;;;;;5021020;28;20274;-70
2023/08/26 00:36:33;;;;;;;5.55;5.10;;;24.10;99.90;;;;;;5025224;28;20294;-69
2023/08/26 00:38:58;;;;;;;5.30;4.90;;;24.10;99.90;;;;;;5046643;28;20241;-70
2023/08/26 00:41:24;;;;;;;4.50;4.18;;;24.10;99.90;;;;;;5040196;28;20611;-70
2023/08/26 00:43:50;;;;;;;4.75;4.38;;;24.10;99.90;;;;;;5036206;28;20186;-69
2023/08/26 00:46:16;;;;;;;4.32;4.03;;;24.10;99.90;;;;;;5044165;28;20210;-70
2023/08/26 00:48:42;;;;;;;5.03;4.60;;;24.10;99.90;;;;;;5042977;28;20214;-70
2023/08/26 00:51:09;;;;;;;4.90;4.50;;;24.00;99.90;;;;;;5035613;28;20384;-70
2023/08/26 00:53:35;;;;;;;4.72;4.32;;;24.10;99.90;;;;;;5024732;28;20179;-69
2023/08/26 00:56:01;;;;;;;4.95;4.55;;;24.00;99.90;;;;;;5019842;28;20227;-70
2023/08/26 00:58:29;;;;;;;4.80;4.40;;;24.00;99.90;;;;;;5042993;28;20199;-69
2023/08/26 01:00:55;;;;;;;4.95;4.55;;;24.00;99.90;;;;;;5031790;28;20195;-70
2023/08/26 01:03:21;;;;;;;4.97;4.57;;;24.00;99.90;;;;;;5014978;28;20189;-70
2023/08/26 01:05:47;;;;;;;4.97;4.57;;;24.00;99.90;;;;;;5042657;28;20210;-70
2023/08/26 01:08:13;;;;;;;5.32;4.85;;;24.00;99.90;;;;;;5044652;28;20186;-70
2023/08/26 01:11:04;;;;;;;5.30;4.90;;;24.00;99.90;;;;;;5030482;28;20196;-70
2023/08/26 01:14:04;;;;;;;5.05;4.60;;;24.10;99.90;;;;;;5031120;28;20183;-69
2023/08/26 01:16:34;;;;;;;4.95;4.55;;;24.00;99.90;;;;;;5032161;28;20320;-70
2023/08/26 01:19:03;;;;;;;4.75;4.38;;;24.10;99.90;;;;;;5029567;28;20206;-70
2023/08/26 01:21:37;;;;;;;5.20;4.80;;;24.00;99.90;;;;;;5015131;28;20183;-70
2023/08/26 01:24:05;;;;;;;5.35;4.95;;;24.00;99.90;;;;;;5042811;28;20190;-70
2023/08/26 01:26:30;;;;;;;4.38;4.07;;;24.00;99.90;;;;;;5043974;28;20221;-70
2023/08/26 01:28:56;;;;;;;5.30;4.90;;;24.00;99.90;;;;;;5038332;28;20183;-70
2023/08/26 01:31:22;;;;;;;4.35;4.05;;;24.00;99.90;;;;;;5022690;28;20203;-69
2023/08/26 01:34:12;;;;;;;4.78;4.40;;;24.00;99.90;;;;;;5042434;28;20186;-70
2023/08/26 01:36:44;;;;;;;5.53;4.45;;;24.00;99.90;;;;;;5034349;28;20211;-70
2023/08/26 01:39:14;;;;;;;4.75;4.43;;;24.00;99.90;;;;;;5044885;28;20202;-70
2023/08/26 01:41:50;;;;;;;4.70;4.30;;;24.00;99.90;;;;;;5041055;28;20191;-70
2023/08/26 01:44:18;;;;;;;4.72;4.32;;;24.00;99.90;;;;;;5027053;28;20751;-70
2023/08/26 01:46:45;;;;;;;4.28;3.88;;;24.00;99.90;;;;;;5022364;28;20239;-71
2023/08/26 01:49:14;;;;;;;5.03;4.63;;;24.00;99.90;;;;;;5045778;28;20269;-70
2023/08/26 01:51:40;;;;;;;5.43;4.50;;;24.00;99.90;;;;;;5017853;28;20214;-70
2023/08/26 01:54:06;;;;;;;5.25;4.85;;;24.10;99.90;;;;;;5028730;28;20207;-70
2023/08/26 01:56:33;;;;;;;4.90;4.47;;;24.00;99.90;;;;;;5028591;28;20721;-70
2023/08/26 01:58:59;;;;;;;4.65;4.35;;;24.00;99.90;;;;;;5038284;28;20187;-70
2023/08/26 02:01:25;;;;;;;4.80;4.40;;;24.00;99.90;;;;;;5063333;28;20672;-70
2023/08/26 02:03:51;;;;;;;4.88;4.47;;;24.00;99.90;;;;;;5021730;28;20183;-69
2023/08/26 02:06:17;;;;;;;5.07;4.60;;;24.00;99.90;;;;;;5010961;28;20289;-70
2023/08/26 02:08:44;;;;;;;4.65;4.32;;;24.00;99.90;;;;;;5028061;28;20199;-70
2023/08/26 02:11:10;;;;;;;4.35;4.05;;;24.00;99.90;;;;;;5024982;28;20184;-70
2023/08/26 02:13:36;;;;;;;5.78;4.68;;;24.00;99.90;;;;;;5026953;28;20689;-69
2023/08/26 02:16:02;;;;;;;4.63;4.32;;;24.00;99.90;;;;;;5023343;28;20207;-70
2023/08/26 02:18:28;;;;;;;4.35;3.95;;;24.00;99.90;;;;;;5031864;28;20175;-70
2023/08/26 02:20:55;;;;;;;4.88;4.47;;;24.00;99.90;;;;;;5010600;28;20188;-70
2023/08/26 02:23:21;;;;;;;5.00;4.60;;;24.00;99.90;;;;;;5026049;28;20189;-70
2023/08/26 02:25:47;;;;;;;4.00;3.70;;;24.00;99.90;;;;;;5047249;28;20214;-70
2023/08/26 02:28:13;;;;;;;4.30;4.00;;;24.00;99.90;;;;;;5038355;28;20175;-70
2023/08/26 02:30:39;;;;;;;5.13;4.72;;;24.00;99.90;;;;;;5021912;28;20617;-69
2023/08/26 02:33:06;;;;;;;4.95;4.10;;;24.00;99.90;;;;;;5024293;28;20186;-69
2023/08/26 02:35:34;;;;;;;4.40;4.10;;;24.00;99.90;;;;;;5050735;28;20212;-70
2023/08/26 02:37:59;;;;;;;4.72;4.20;;;24.00;99.90;;;;;;5034221;28;20281;-70
2023/08/26 02:40:25;;;;;;;4.32;4.03;;;24.00;99.90;;;;;;5043006;28;20262;-70
2023/08/26 02:42:51;;;;;;;4.22;3.92;;;24.00;99.90;;;;;;5020132;28;20180;-69
2023/08/26 02:45:17;;;;;;;4.55;4.22;;;24.00;99.90;;;;;;5045895;28;20268;-70
2023/08/26 02:47:44;;;;;;;4.63;4.22;;;24.00;99.90;;;;;;5054296;28;20183;-70
2023/08/26 02:50:10;;;;;;;4.43;4.10;;;24.00;99.90;;;;;;5054227;28;20221;-70
2023/08/26 02:52:35;;;;;;;4.28;3.92;;;24.00;99.90;;;;;;5037304;28;20210;-69
2023/08/26 02:55:01;;;;;;;4.70;4.30;;;24.00;99.90;;;;;;5021450;28;20205;-70
2023/08/26 02:57:27;;;;;;;4.60;4.20;;;24.00;99.90;;;;;;5054246;28;20201;-70
2023/08/26 02:59:53;;;;;;;4.30;4.00;;;24.00;99.90;;;;;;5051134;28;20183;-70
2023/08/26 03:02:24;;;;;;;4.22;3.92;;;24.00;99.90;;;;;;5023602;28;20238;-70
2023/08/26 03:04:51;;;;;;;4.20;3.90;;;24.00;99.90;;;;;;5020284;28;20207;-70
2023/08/26 03:07:16;;;;;;;4.18;3.88;;;24.00;99.90;;;;;;5045570;28;20179;-70
2023/08/26 03:09:42;;;;;;;4.30;4.00;;;24.00;99.90;;;;;;5020586;28;20179;-70
2023/08/26 03:12:08;;;;;;;4.13;3.83;;;24.00;99.90;;;;;;5037238;28;20184;-70
2023/08/26 03:14:34;;;;;;;4.03;3.70;;;24.00;99.90;;;;;;5017051;28;20178;-70
2023/08/26 03:16:59;;;;;;;4.03;3.72;;;24.00;99.90;;;;;;5045018;28;20222;-70
2023/08/26 03:19:26;;;;;;;4.15;3.75;;;24.00;99.90;;;;;;5022155;28;20191;-70
2023/08/26 03:21:52;;;;;;;3.85;3.55;;;24.00;99.90;;;;;;5034612;28;20195;-70
2023/08/26 03:24:17;;;;;;;4.03;3.72;;;24.00;99.90;;;;;;5030775;28;20203;-70
2023/08/26 03:26:44;;;;;;;3.80;3.50;;;24.00;99.90;;;;;;5017941;28;20203;-70
2023/08/26 03:29:10;;;;;;;3.67;3.47;;;24.00;99.90;;;;;;5040947;28;20175;-70
2023/08/26 03:31:36;;;;;;;4.00;3.60;;;24.00;99.90;;;;;;5036432;28;20186;-70
2023/08/26 03:34:03;;;;;;;4.25;3.95;;;24.00;99.90;;;;;;5032895;28;20172;-70
2023/08/26 03:36:29;;;;;;;3.65;3.35;;;24.00;99.90;;;;;;5024864;28;20199;-70
2023/08/26 03:38:55;;;;;;;3.90;3.60;;;24.00;99.90;;;;;;5023137;28;20180;-70
2023/08/26 03:41:22;;;;;;;3.80;3.50;;;24.00;99.90;;;;;;5029971;28;20176;-70
2023/08/26 03:43:48;;;;;;;4.03;3.72;;;24.00;99.90;;;;;;5055279;28;20192;-70
2023/08/26 03:46:13;;;;;;;3.53;3.33;;;24.00;99.90;;;;;;5032871;28;20226;-69
2023/08/26 03:48:39;;;;;;;4.15;3.85;;;24.00;99.90;;;;;;5042583;28;20186;-70
2023/08/26 03:51:05;;;;;;;3.95;3.65;;;24.00;99.90;;;;;;5040859;28;20175;-70
2023/08/26 03:53:32;;;;;;;3.72;3.42;;;24.00;99.90;;;;;;5016517;28;20187;-70
2023/08/26 03:55:59;;;;;;;3.90;3.60;;;24.00;99.90;;;;;;5032793;28;20230;-70
2023/08/26 03:58:26;;;;;;;3.50;3.20;;;24.00;99.90;;;;;;5034093;28;20187;-69
2023/08/26 04:01:01;;;;;;;3.72;3.42;;;24.00;99.90;;;;;;5040614;28;20194;-70
2023/08/26 04:03:26;;;;;;;3.60;3.30;;;24.00;99.90;;;;;;5021305;28;20614;-70
2023/08/26 04:06:04;;;;;;;3.50;3.20;;;24.00;99.90;;;;;;5040835;28;20218;-70
2023/08/26 04:08:32;;;;;;;3.22;2.95;;;24.00;99.90;;;;;;5052911;28;20179;-70
2023/08/26 04:11:00;;;;;;;3.47;3.17;;;24.00;99.90;;;;;;5044265;28;20236;-70
2023/08/26 04:13:29;;;;;;;3.53;3.22;;;24.00;99.90;;;;;;5036018;28;20638;-70
2023/08/26 04:15:56;;;;;;;3.20;3.00;;;23.90;99.90;;;;;;5044070;28;20215;-69
2023/08/26 04:18:23;;;;;;;3.50;3.20;;;24.00;99.90;;;;;;5038466;28;20190;-70
2023/08/26 04:20:50;;;;;;;3.45;3.15;;;24.00;99.90;;;;;;5032618;28;20417;-70
2023/08/26 04:23:16;;;;;;;3.63;3.28;;;24.00;99.90;;;;;;5045390;28;20220;-70
2023/08/26 04:25:43;;;;;;;3.67;3.38;;;24.00;99.90;;;;;;5027137;28;20238;-69
2023/08/26 04:28:11;;;;;;;3.53;3.22;;;24.00;99.90;;;;;;5028119;28;20194;-70
2023/08/26 04:30:37;;;;;;;3.20;3.00;;;24.00;99.90;;;;;;5036342;28;20183;-70
2023/08/26 04:33:04;;;;;;;3.30;3.10;;;24.00;99.90;;;;;;5026442;28;20179;-68
2023/08/26 04:35:31;;;;;;;3.33;3.03;;;23.90;99.90;;;;;;5044873;28;20213;-70
2023/08/26 04:37:57;;;;;;;3.70;3.40;;;24.00;99.90;;;;;;5018829;28;20171;-70
2023/08/26 04:40:25;;;;;;;3.30;3.10;;;24.00;99.90;;;;;;5039452;28;20206;-70
2023/08/26 04:42:51;;;;;;;3.30;3.00;;;23.90;99.90;;;;;;5041227;28;20201;-70
2023/08/26 04:45:17;;;;;;;3.40;3.20;;;23.90;99.90;;;;;;5047031;28;20227;-70
2023/08/26 04:47:43;;;;;;;3.15;2.90;;;24.00;99.90;;;;;;5023453;28;20569;-70
2023/08/26 04:50:11;;;;;;;2.97;2.78;;;24.00;99.90;;;;;;5048531;28;20194;-70
2023/08/26 04:52:39;;;;;;;3.20;3.00;;;24.00;99.90;;;;;;5036671;28;20330;-70
2023/08/26 04:55:07;;;;;;;2.95;2.75;;;24.00;99.90;;;;;;5040898;28;20225;-69
2023/08/26 04:57:34;;;;;;;3.58;3.30;;;23.90;99.90;;;;;;5043357;28;20572;-70
2023/08/26 05:00:00;;;;;;;2.97;2.78;;;23.90;99.90;;;;;;5024608;28;20727;-70
2023/08/26 05:02:28;;;;;;;3.40;3.10;;;23.90;99.90;;;;;;5046116;28;20182;-70
2023/08/26 05:04:54;;;;;;;3.25;2.95;;;23.90;99.90;;;;;;5042775;28;20202;-70
2023/08/26 05:07:20;;;;;;;2.90;2.70;;;23.90;99.90;;;;;;5046572;28;20210;-71
2023/08/26 05:09:46;;;;;;;3.42;3.13;;;23.90;99.90;;;;;;5039494;28;20182;-70
2023/08/26 05:12:12;;;;;;;3.22;2.92;;;23.90;99.90;;;;;;5031536;28;20167;-70
2023/08/26 05:14:37;;;;;;;3.33;3.13;;;23.90;99.90;;;;;;5038536;28;20186;-70
2023/08/26 05:17:03;;;;;;;3.15;2.90;;;23.90;99.90;;;;;;5024109;28;20195;-70
2023/08/26 05:19:29;;;;;;;3.08;2.88;;;23.90;99.90;;;;;;5037509;28;20245;-70
2023/08/26 05:21:57;;;;;;;3.33;3.13;;;23.90;99.90;;;;;;5041561;28;20218;-70
2023/08/26 05:24:23;;;;;;;3.40;3.10;;;23.90;99.90;;;;;;5019424;28;20210;-70
2023/08/26 05:26:49;;;;;;;2.95;2.75;;;23.90;99.90;;;;;;5042961;28;20289;-70
2023/08/26 05:29:15;;;;;;;2.92;2.72;;;23.90;99.90;;;;;;5022384;28;20654;-70
2023/08/26 05:31:41;;;;;;;3.40;3.15;;;23.90;99.90;;;;;;5046521;28;20186;-70
2023/08/26 05:34:07;;;;;;;3.28;2.97;;;23.90;99.90;;;;;;5031746;28;20186;-69
2023/08/26 05:36:33;;;;;;;2.63;2.45;;;23.90;99.90;;;;;;5014423;28;20206;-70
2023/08/26 05:38:59;;;;;;;3.55;2.80;;;23.90;99.90;;;;;;5038640;28;20180;-70
2023/08/26 05:41:24;;;;;;;3.00;2.80;;;23.90;99.90;;;;;;5021401;28;20179;-70
2023/08/26 05:43:50;;;;;;;3.15;2.85;;;23.90;99.90;;;;;;5048532;28;20182;-70
2023/08/26 05:46:16;;;;;;;2.90;2.70;;;23.90;99.90;;;;;;5026252;28;20218;-70
2023/08/26 05:48:42;;;;;;;3.28;2.88;;;23.90;99.90;;;;;;5034136;28;20191;-70
2023/08/26 05:51:08;;;;;;;2.92;2.72;;;23.90;99.90;;;;;;5017712;28;20670;-70
2023/08/26 05:53:33;;;;;;;3.20;2.88;;;23.90;99.90;;;;;;5025464;28;20208;-70
2023/08/26 05:55:59;;;;;;;3.28;2.97;;;23.90;99.90;;;;;;5041567;28;20958;-69
2023/08/26 05:58:25;;;;;;;2.75;2.55;;;23.90;99.90;;;;;;5034127;28;20182;-69
2023/08/26 06:00:51;;;;;;;2.80;2.65;;;23.90;99.90;;;;;;5050221;28;20209;-70
2023/08/26 06:03:17;;;;;;;3.00;2.80;;;23.90;99.90;;;;;;5022597;28;20658;-70
2023/08/26 06:05:43;;;;;;;2.97;2.67;;;23.90;99.90;;;;;;5027712;28;20222;-70
2023/08/26 06:08:09;;;;;;;2.85;2.65;;;23.90;99.90;;;;;;5047236;28;20182;-69
2023/08/26 06:10:36;;;;;;;2.80;2.60;;;23.90;99.90;;;;;;5037050;28;20566;-70
2023/08/26 06:13:04;;;;;;;3.03;2.72;;;23.90;99.90;;;;;;5034248;28;20238;-70
2023/08/26 06:15:30;;;;;;;3.10;2.90;;;23.90;99.90;;;;;;5033824;28;20208;-70
2023/08/26 06:17:56;;;;;;;3.15;2.95;;;23.90;99.90;;;;;;5035141;28;20188;-69
2023/08/26 06:20:24;;;;;;;2.80;2.60;;;23.90;99.90;;;;;;5026652;28;20214;-70
2023/08/26 06:22:50;;;;;;;3.10;2.83;;;23.90;99.90;;;;;;5035407;28;20267;-70
2023/08/26 06:25:16;;;;;;;2.92;2.60;;;23.90;99.90;;;;;;5007442;28;20218;-70
2023/08/26 06:27:42;;;;;;;2.92;2.72;;;23.90;99.90;;;;;;5037136;28;20243;-70
2023/08/26 06:30:08;;;;;;;3.25;2.95;;;23.90;99.90;;;;;;5028796;28;20175;-70
2023/08/26 06:32:35;;;;;;;2.90;2.70;;;23.90;99.90;;;;;;5029942;28;20205;-70
2023/08/26 06:35:02;;;;;;;2.70;2.50;;;23.90;99.90;;;;;;5025062;28;20228;-70
2023/08/26 06:37:27;;;;;;;2.80;2.60;;;23.90;99.90;;;;;;5033936;28;20182;-70
2023/08/26 06:39:53;;;;;;;3.13;2.80;;;23.90;99.90;;;;;;5033783;28;20199;-70
2023/08/26 06:42:19;;;;;;;3.03;2.83;;;23.90;99.90;;;;;;5016533;28;20185;-70
2023/08/26 06:44:54;;;;;;;2.83;2.63;;;23.90;99.90;;;;;;5015170;28;20204;-70
2023/08/26 06:47:20;;;;;;;2.53;2.33;;;23.90;99.90;;;;;;5022283;28;20229;-70
2023/08/26 06:49:46;;;;;;;2.65;2.40;;;23.90;99.90;;;;;;5022326;28;20175;-70
2023/08/26 06:52:11;;;;;;;2.88;2.67;;;23.90;99.90;;;;;;5039554;28;20237;-70
2023/08/26 06:54:38;;;;;;;2.70;2.45;;;23.90;99.90;;;;;;5010162;28;20208;-71
2023/08/26 06:57:04;;;;;;;2.80;2.60;;;23.90;99.90;;;;;;5026844;28;20184;-70
2023/08/26 06:59:30;;;;;;;3.00;2.63;;;23.90;99.90;;;;;;5028804;28;20187;-70
2023/08/26 07:01:55;;;;;;;2.60;2.40;;;23.90;99.90;;;;;;5039466;28;20237;-70
2023/08/26 07:04:21;;;;;;;3.33;2.35;;;23.90;99.90;;;;;;5029741;28;20237;-70
2023/08/26 07:06:48;;;;;;;3.10;2.65;;;23.90;99.90;;;;;;5030291;28;20210;-70
2023/08/26 07:09:14;;;;;;;2.83;2.63;;;23.80;99.90;;;;;;5040787;28;20214;-71
2023/08/26 07:11:39;;;;;;;2.90;2.70;;;23.90;99.90;;;;;;5036216;28;20187;-70
2023/08/26 07:14:05;;;;;;;2.58;2.38;;;23.90;99.90;;;;;;5037847;28;20217;-69
2023/08/26 07:16:31;;;;;;;2.50;2.33;;;23.90;99.90;;;;;;5035787;28;20281;-70
2023/08/26 07:18:57;;;;;;;2.58;2.38;;;23.90;99.90;;;;;;5023253;28;20214;-69
2023/08/26 07:21:22;;;;;;;2.85;2.65;;;23.90;99.90;;;;;;5023032;28;20179;-71
2023/08/26 07:23:48;;;;;;;3.13;2.40;;;23.90;99.90;;;;;;5034992;28;20369;-69
2023/08/26 07:26:14;;;;;;;2.90;2.70;;;23.90;99.90;;;;;;5044670;28;20218;-70
2023/08/26 07:28:39;;;;;;;2.92;2.67;;;23.90;99.90;;;;;;5036654;28;20676;-70
2023/08/26 07:31:08;;;;;;;2.70;2.50;;;23.90;99.90;;;;;;5036581;28;20186;-71
2023/08/26 07:33:34;;;;;;;2.95;2.70;;;23.90;99.90;;;;;;5054383;28;20186;-70
2023/08/26 07:36:09;;;;;;;2.88;2.67;;;23.90;99.90;;;;;;5045915;28;20211;-69
2023/08/26 07:38:37;;;;;;;2.65;2.45;;;23.90;99.90;;;;;;5049884;28;20187;-69
2023/08/26 07:41:03;;;;;;;2.65;2.42;;;23.90;99.90;;;;;;5016742;28;20226;-69
2023/08/26 07:43:28;;;;;;;2.30;2.10;;;23.90;99.90;;;;;;5046316;28;20213;-69
2023/08/26 07:45:54;;;;;;;2.85;2.65;;;23.90;99.90;;;;;;5020665;28;20223;-69
2023/08/26 07:48:20;;;;;;;2.40;2.20;;;23.90;99.90;;;;;;5045185;28;20182;-70
2023/08/26 07:50:45;;;;;;;2.55;2.35;;;23.90;99.90;;;;;;5046190;28;20193;-69
2023/08/26 07:53:11;;;;;;;2.50;2.30;;;23.90;99.90;;;;;;5034588;28;20197;-68
2023/08/26 07:55:37;;;;;;;2.65;2.22;;;24.00;99.90;;;;;;5041129;28;20215;-69
2023/08/26 07:58:05;;;;;;;2.70;2.50;;;23.90;99.90;;;;;;5049108;28;20182;-69
2023/08/26 08:00:31;;;;;;;2.50;2.35;;;24.00;99.90;;;;;;5022039;28;20184;-70
2023/08/26 08:02:57;;;;;;;2.63;2.42;;;24.00;99.90;;;;;;5049783;28;20187;-69
2023/08/26 08:05:23;;;;;;;2.75;2.55;;;24.00;99.90;;;;;;5041528;28;20227;-70
2023/08/26 08:07:49;;;;;;;2.60;2.40;;;23.90;99.90;;;;;;5024454;28;20194;-70
2023/08/26 08:10:14;;;;;;;2.47;2.28;;;24.00;99.90;;;;;;5042198;28;20192;-71
2023/08/26 08:12:40;;;;;;;2.47;2.28;;;24.00;99.90;;;;;;5019051;28;20191;-69
2023/08/26 08:15:08;;;;;;;3.00;2.78;;;24.00;99.90;;;;;;5040816;28;20264;-69
2023/08/26 08:17:33;;;;;;;2.33;2.10;;;24.00;99.90;;;;;;5044952;28;20194;-71
2023/08/26 08:19:59;;;;;;;2.90;2.70;;;24.00;99.90;;;;;;5027163;28;20328;-70
2023/08/26 08:22:39;;;;;;;2.83;2.60;;;24.00;99.90;;;;;;5018632;28;20198;-70
2023/08/26 08:25:06;;;;;;;2.70;2.30;;;24.00;99.90;;;;;;5050012;28;20221;-69
2023/08/26 08:27:32;;;;;;;2.28;2.08;;;24.00;99.90;;;;;;5039821;28;20674;-70
2023/08/26 08:29:59;;;;;;;2.78;2.38;;;24.00;99.90;;;;;;5032198;28;20193;-69
2023/08/26 08:32:26;;;;;;;3.08;2.63;;;24.10;99.90;;;;;;5040131;28;20249;-69
2023/08/26 08:34:52;;;;;;;2.60;2.40;;;24.00;99.90;;;;;;5047820;28;20197;-69
2023/08/26 08:37:18;;;;;;;2.50;2.30;;;24.00;99.90;;;;;;5035376;28;20190;-69
2023/08/26 08:39:44;;;;;;;3.13;2.30;;;24.00;99.90;;;;;;5027379;28;20273;-70
2023/08/26 08:42:15;;;;;;;2.50;2.30;;;24.10;99.90;;;;;;5043879;28;20282;-69
2023/08/26 08:44:44;;;;;;;2.60;2.40;;;24.10;99.90;;;;;;5048108;28;20211;-69
2023/08/26 08:47:10;;;;;;;2.53;2.33;;;24.10;99.90;;;;;;5048864;28;20189;-69
2023/08/26 08:49:37;;;;;;;2.70;2.50;;;24.10;99.90;;;;;;5053053;28;20185;-70
2023/08/26 08:52:05;;;;;;;2.53;2.33;;;24.10;99.90;;;;;;5027437;28;20282;-70
2023/08/26 08:54:33;;;;;;;2.40;2.20;;;24.10;99.90;;;;;;5026285;28;20255;-69
2023/08/26 08:57:00;;;;;;;3.20;2.50;;;24.10;99.90;;;;;;5044589;28;20683;-70
2023/08/26 08:59:27;;;;;;;2.28;2.10;;;24.10;99.90;;;;;;5042424;28;20214;-70
2023/08/26 09:01:59;;;;;;;2.50;2.30;;;24.10;99.90;;;;;;5051463;28;20209;-70
2023/08/26 09:04:26;;;;;;;2.30;2.20;;;24.10;99.90;;;;;;5052439;28;20209;-70
2023/08/26 09:06:53;;;;;;;2.53;2.33;;;24.10;99.90;;;;;;5051481;28;20222;-70
2023/08/26 09:09:20;;;;;;;2.85;2.47;;;24.10;99.90;;;;;;5043332;28;20189;-70
2023/08/26 09:11:48;;;;;;;3.00;2.50;;;24.10;99.90;;;;;;5040934;28;20187;-70
2023/08/26 09:14:14;;;;;;;2.75;2.55;;;24.10;99.90;;;;;;5049552;28;20183;-69
2023/08/26 09:16:42;;;;;;;2.67;2.45;;;24.10;99.90;;;;;;5043318;28;20202;-70
2023/08/26 09:19:13;;;;;;;2.75;2.40;;;24.10;99.90;;;;;;5051025;28;20198;-70
2023/08/26 09:21:46;;;;;;;2.38;2.17;;;24.10;99.90;;;;;;5029891;28;20190;-70
2023/08/26 09:24:17;;;;;;;2.90;2.70;;;24.10;99.90;;;;;;5039441;28;20179;-69
2023/08/26 09:26:58;;;;;;;2.60;2.40;;;24.10;99.90;;;;;;5044370;28;20214;-70
2023/08/26 09:29:25;;;;;;;3.25;2.53;;;24.10;99.90;;;;;;5034611;28;20199;-70
2023/08/26 09:31:56;;;;;;;2.72;2.53;;;24.10;99.90;;;;;;5037000;28;20205;-70
2023/08/26 09:34:28;;;;;;;2.58;2.38;;;24.10;99.90;;;;;;5040462;28;20195;-70
2023/08/26 09:36:55;;;;;;;2.67;2.47;;;24.10;99.90;;;;;;5050919;28;20559;-70
2023/08/26 09:39:21;;;;;;;3.13;2.80;;;24.10;99.90;;;;;;5042668;28;20214;-69
2023/08/26 09:41:48;;;;;;;2.53;2.33;;;24.10;99.90;;;;;;5050614;28;20236;-69
2023/08/26 09:44:17;;;;;;;2.72;2.50;;;24.10;99.90;;;;;;5042102;28;20187;-69
2023/08/26 09:46:44;;;;;;;2.42;2.33;;;24.10;99.90;;;;;;5046494;28;20215;-70
2023/08/26 09:49:14;;;;;;;2.45;2.25;;;24.10;99.90;;;;;;5030575;28;20183;-70
2023/08/26 09:51:47;;;;;;;2.67;2.47;;;24.10;99.90;;;;;;5018039;28;20198;-69
2023/08/26 09:54:16;;;;;;;2.78;2.55;;;24.10;99.90;;;;;;5025290;28;20211;-69
2023/08/26 09:56:43;;;;;;;2.35;2.15;;;24.10;99.90;;;;;;5040149;28;20285;-69
2023/08/26 09:59:09;;;;;;;2.47;2.28;;;24.10;99.90;;;;;;5047694;28;20182;-69
2023/08/26 10:01:38;;;;;;;2.58;2.30;;;24.10;99.90;;;;;;5042149;28;20197;-70
2023/08/26 10:04:09;;;;;;;2.60;2.40;;;24.10;99.90;;;;;;5050226;28;20190;-69
2023/08/26 10:06:40;;;;;;;3.30;2.65;;;24.20;99.90;;;;;;5047624;28;20740;-70
2023/08/26 10:09:39;;;;;;;3.72;2.72;;;24.20;99.90;;;;;;5040362;28;20191;-70
2023/08/26 10:12:18;;;;;;;2.97;2.28;;;24.10;99.90;;;;;;5038810;28;20195;-70
2023/08/26 10:14:49;;;;;;;3.17;2.42;;;24.20;99.90;;;;;;5035452;28;20192;-70
2023/08/26 10:17:20;;;;;;;2.80;2.60;;;24.20;99.90;;;;;;5017513;28;20199;-69
2023/08/26 10:19:47;;;;;;;2.60;2.40;;;24.20;99.90;;;;;;5051625;28;20218;-69
2023/08/26 10:22:14;;;;;;;2.80;2.47;;;24.20;99.90;;;;;;5025705;28;20191;-70
2023/08/26 10:24:40;;;;;;;3.17;2.42;;;24.20;99.90;;;;;;5050884;28;20248;-69
2023/08/26 10:27:07;;;;;;;3.00;2.72;;;24.20;99.90;;;;;;5050297;28;20183;-69
2023/08/26 10:29:36;;;;;;;3.20;2.85;;;24.20;99.90;;;;;;5018439;28;20179;-70
2023/08/26 10:32:17;;;;;;;2.70;2.47;;;24.20;99.90;;;;;;5023885;28;20189;-69
2023/08/26 10:34:56;;;;;;;3.30;2.80;;;24.20;99.90;;;;;;5034056;28;20200;-70
2023/08/26 10:37:31;;;;;;;3.97;2.97;;;24.20;99.90;;;;;;5049646;28;20193;-70
2023/08/26 10:40:08;;;;;;;2.58;2.38;;;24.20;99.90;;;;;;5030444;28;20198;-69
2023/08/26 10:42:36;;;;;;;3.78;2.88;;;24.20;99.90;;;;;;5040789;28;20190;-70
2023/08/26 10:45:11;;;;;;;2.55;2.30;;;24.20;99.90;;;;;;5049776;28;20218;-69
2023/08/26 10:47:51;;;;;;;3.45;3.15;;;24.20;99.90;;;;;;5041839;28;20225;-69
2023/08/26 10:50:20;;;;;;;2.83;2.50;;;24.10;99.90;;;;;;5034886;28;20261;-69
2023/08/26 10:53:14;;;;;;;3.08;2.78;;;24.20;99.90;;;;;;5034677;28;20187;-70
2023/08/26 10:55:41;;;;;;;3.40;2.60;;;24.20;99.90;;;;;;5045509;28;20225;-69
2023/08/26 10:58:18;;;;;;;3.63;3.13;;;24.20;99.90;;;;;;5047287;28;20234;-69
2023/08/26 11:00:48;;;;;;;2.88;2.67;;;24.20;99.90;;;;;;5055142;28;20186;-69
2023/08/26 11:03:22;;;;;;;2.90;2.58;;;24.20;99.90;;;;;;5054983;28;20649;-69
2023/08/26 11:06:10;;;;;;;2.80;2.60;;;24.20;99.90;;;;;;5031287;28;20217;-69
2023/08/26 11:08:38;;;;;;;2.88;2.67;;;24.20;99.90;;;;;;5053869;28;20194;-70
2023/08/26 11:11:09;;;;;;;2.90;2.70;;;24.20;99.90;;;;;;5047658;28;20253;-70
2023/08/26 11:13:35;;;;;;;3.10;2.80;;;24.20;99.90;;;;;;5044103;28;20191;-70
2023/08/26 11:16:01;;;;;;;2.90;2.60;;;24.20;99.90;;;;;;5053538;28;20237;-69
2023/08/26 11:18:27;;;;;;;3.13;2.80;;;24.20;99.90;;;;;;5054528;28;20194;-69
2023/08/26 11:20:53;;;;;;;2.92;2.70;;;24.20;99.90;;;;;;5053761;28;20266;-69
2023/08/26 11:23:24;;;;;;;3.58;2.63;;;24.20;99.90;;;;;;5038464;28;20202;-69
2023/08/26 11:25:50;;;;;;;3.05;2.67;;;24.20;99.90;;;;;;5034012;28;20239;-69
2023/08/26 11:28:15;;;;;;;2.63;2.42;;;24.20;99.90;;;;;;5050367;28;20182;-70
2023/08/26 11:30:48;;;;;;;2.80;2.60;;;24.20;99.90;;;;;;5033848;28;20747;-69
2023/08/26 11:33:16;;;;;;;4.65;2.60;;;24.20;99.90;;;;;;5032129;28;20604;-69
2023/08/26 11:35:44;;;;;;;3.42;2.63;;;24.20;99.90;;;;;;5042020;28;20226;-69
2023/08/26 11:38:11;;;;;;;2.90;2.70;;;24.20;99.90;;;;;;5040004;28;20273;-69
2023/08/26 11:40:37;;;;;;;3.38;2.70;;;24.20;99.90;;;;;;5051149;28;20195;-70
2023/08/26 11:43:11;;;;;;;2.75;2.55;;;24.20;99.90;;;;;;5039843;28;20243;-69
2023/08/26 11:45:40;;;;;;;2.80;2.50;;;24.20;99.90;;;;;;5026059;28;20222;-69
2023/08/26 11:48:12;;;;;;;2.75;2.55;;;24.20;99.90;;;;;;5022848;28;20191;-70
2023/08/26 11:50:39;;;;;;;2.83;2.22;;;24.10;99.90;;;;;;5036783;28;20277;-69
2023/08/26 11:53:06;;;;;;;2.78;2.38;;;24.20;99.90;;;;;;5045873;28;20190;-70
2023/08/26 11:55:34;;;;;;;3.03;2.80;;;24.20;99.90;;;;;;5027797;28;20206;-69
2023/08/26 11:58:02;;;;;;;2.60;2.40;;;24.20;99.90;;;;;;5044846;28;20195;-69
2023/08/26 12:00:28;;;;;;;3.25;2.95;;;24.20;99.90;;;;;;5052191;28;20650;-70
2023/08/26 12:03:03;;;;;;;2.85;2.50;;;24.20;99.90;;;;;;5028687;28;20194;-70
2023/08/26 12:05:42;;;;;;;3.40;2.95;;;24.20;99.90;;;;;;5043602;28;20227;-69
2023/08/26 12:08:14;;;;;;;4.47;2.80;;;24.20;99.90;;;;;;5044571;28;20333;-70
2023/08/26 12:10:41;;;;;;;2.83;2.53;;;24.10;99.90;;;;;;5027992;28;20560;-69
2023/08/26 12:13:06;;;;;;;3.28;2.33;;;24.10;99.90;;;;;;5038580;28;20198;-68
2023/08/26 12:15:32;;;;;;;3.30;2.83;;;24.10;99.90;;;;;;5041578;28;20211;-69
2023/08/26 12:18:00;;;;;;;5.03;2.75;;;24.10;99.90;;;;;;5052777;28;20654;-70
2023/08/26 12:20:34;;;;;;;3.35;2.75;;;24.10;99.90;;;;;;5052595;28;20191;-69
2023/08/26 12:23:02;;;;;;;2.80;2.60;;;24.10;99.90;;;;;;5020082;28;20192;-70
2023/08/26 12:25:33;;;;;;;2.88;2.35;;;24.10;99.90;;;;;;5045815;28;20240;-69
2023/08/26 12:28:08;;;;;;;2.90;2.70;;;24.20;99.90;;;;;;5037877;28;20194;-70
2023/08/26 12:30:36;;;;;;;2.80;2.60;;;24.20;99.90;;;;;;5052478;28;20185;-69
2023/08/26 12:33:06;;;;;;;3.05;2.78;;;24.10;99.90;;;;;;5043573;28;20249;-69
2023/08/26 12:35:34;;;;;;;3.35;2.33;;;24.10;99.90;;;;;;5043306;28;20280;-70
2023/08/26 12:38:02;;;;;;;3.15;2.70;;;24.10;99.90;;;;;;5052146;28;20194;-69
2023/08/26 12:40:33;;;;;;;2.53;2.33;;;24.10;99.90;;;;;;5053362;28;20236;-70
2023/08/26 12:43:00;;;;;;;2.70;2.50;;;24.10;99.90;;;;;;5028969;28;20269;-70
2023/08/26 12:45:27;;;;;;;3.00;2.67;;;24.10;99.90;;;;;;5051753;28;20275;-70
2023/08/26 12:47:53;;;;;;;3.35;2.80;;;24.10;99.90;;;;;;5051272;28;20269;-70
2023/08/26 12:50:20;;;;;;;2.63;2.40;;;24.10;99.90;;;;;;5028328;28;20183;-70